Time;durP1;ratioP1;P1;durP2;ratioP2;P2;SDS_P1;SDS_P2;PMS_P1;PMS_P2;Temp;Humidity;BMP_temperature;BMP_pressure;BME280_temperature;BME280_humidity;BME280_pressure;Samples;Min_cycle;Max_cycle;Signal;HPM_P1;HPM_P2
2023/06/24 00:02:15;;;;;;;8.60;5.25;;;;;;;26.57;54.00;100027.56;4936308;29;20494;-74
2023/06/24 00:04:40;;;;;;;7.10;5.45;;;;;;;26.58;54.04;100031.94;4935989;29;20032;-74
2023/06/24 00:07:06;;;;;;;7.60;5.47;;;;;;;26.58;53.88;100031.94;4936136;29;20036;-74
2023/06/24 00:09:31;;;;;;;7.93;5.80;;;;;;;26.58;54.03;100021.22;4935819;29;20412;-74
2023/06/24 00:12:01;;;;;;;8.00;4.95;;;;;;;26.57;53.76;100024.88;4936157;29;20036;-73
2023/06/24 00:14:27;;;;;;;8.07;5.78;;;;;;;26.56;53.74;100020.47;4935603;29;20023;-75
2023/06/24 00:16:54;;;;;;;8.00;5.65;;;;;;;26.56;53.82;100023.16;4935474;29;20042;-75
2023/06/24 00:19:21;;;;;;;6.88;5.25;;;;;;;26.56;54.18;100023.16;4934622;29;20074;-74
2023/06/24 00:21:47;;;;;;;7.82;5.38;;;;;;;26.53;53.71;100017.06;4935643;29;20492;-75
2023/06/24 00:24:12;;;;;;;7.45;5.47;;;;;;;26.54;53.74;100018.75;4935746;29;20070;-75
2023/06/24 00:26:38;;;;;;;8.40;5.85;;;;;;;26.54;53.72;100016.09;4939646;29;20553;-74
2023/06/24 00:29:03;;;;;;;8.40;5.38;;;;;;;26.55;53.93;100022.31;4934905;29;20044;-77
2023/06/24 00:31:29;;;;;;;7.45;5.25;;;;;;;26.52;53.77;100017.19;4935479;29;20051;-74
2023/06/24 00:33:54;;;;;;;7.18;5.57;;;;;;;26.53;53.70;100009.03;4935525;29;20027;-76
2023/06/24 00:36:21;;;;;;;7.53;5.40;;;;;;;26.52;54.05;100007.34;4935388;29;20039;-75
2023/06/24 00:38:46;;;;;;;7.93;5.57;;;;;;;26.51;53.88;100002.97;4935359;29;20031;-75
2023/06/24 00:41:11;;;;;;;6.95;5.22;;;;;;;26.53;54.22;100002.81;4935267;29;20035;-74
2023/06/24 00:43:39;;;;;;;7.18;5.53;;;;;;;26.52;53.77;99996.63;4935152;29;20019;-75
2023/06/24 00:46:06;;;;;;;7.68;5.55;;;;;;;26.48;54.20;99997.84;4935424;29;20074;-75
2023/06/24 00:48:31;;;;;;;7.78;5.30;;;;;;;26.48;53.76;99999.66;4935069;29;20111;-76
2023/06/24 00:50:58;;;;;;;6.88;5.07;;;;;;;26.46;53.14;99994.44;4935085;29;20103;-74
2023/06/24 00:53:24;;;;;;;6.85;5.55;;;;;;;26.46;54.20;99991.75;4935037;29;20035;-75
2023/06/24 00:55:52;;;;;;;8.05;6.18;;;;;;;26.45;53.53;99984.69;4935275;29;20032;-75
2023/06/24 00:58:20;;;;;;;6.72;5.55;;;;;;;26.45;54.10;99990.06;4934692;29;20035;-75
2023/06/24 01:00:48;;;;;;;7.43;5.32;;;;;;;26.45;54.52;99983.84;4935056;29;20032;-76
2023/06/24 01:03:13;;;;;;;6.93;5.80;;;;;;;26.44;54.35;99974.94;4934593;29;20422;-76
2023/06/24 01:05:40;;;;;;;7.13;5.50;;;;;;;26.44;54.13;99976.78;4934910;29;20051;-75
2023/06/24 01:08:06;;;;;;;6.95;5.05;;;;;;;26.44;54.26;99972.25;4934910;29;20028;-76
2023/06/24 01:10:31;;;;;;;6.15;4.82;;;;;;;26.43;54.27;99969.72;4935078;29;20063;-75
2023/06/24 01:12:57;;;;;;;7.97;5.68;;;;;;;26.42;54.41;99974.22;4934532;29;20397;-75
2023/06/24 01:15:23;;;;;;;8.48;5.90;;;;;;;26.40;54.08;99960.94;4934688;29;20032;-75
2023/06/24 01:18:11;;;;;;;6.75;5.25;;;;;;;26.40;54.38;99962.78;4934780;29;20477;-76
2023/06/24 01:20:52;;;;;;;8.05;6.25;;;;;;;26.40;54.35;99960.94;4934730;29;20032;-75
2023/06/24 01:23:30;;;;;;;6.70;5.20;;;;;;;26.40;54.16;99955.59;4934654;29;20496;-75
2023/06/24 01:25:55;;;;;;;7.43;5.43;;;;;;;26.41;54.43;99956.47;4934846;29;20103;-75
2023/06/24 01:28:33;;;;;;;6.93;5.28;;;;;;;26.39;54.56;99953.91;4930348;29;20110;-76
2023/06/24 01:31:06;;;;;;;6.70;5.10;;;;;;;26.43;53.91;99956.34;4915807;29;20052;-75
2023/06/24 01:33:55;;;;;;;8.57;5.82;;;;;;;26.42;54.02;99955.50;4924458;29;20591;-75
2023/06/24 01:36:24;;;;;;;6.90;5.68;;;;;;;26.41;54.22;99951.13;4934603;29;20031;-75
2023/06/24 01:38:58;;;;;;;6.70;5.28;;;;;;;26.41;54.03;99948.44;4938119;29;20032;-75
2023/06/24 01:41:29;;;;;;;7.38;5.35;;;;;;;26.39;54.35;99945.88;4937087;29;20024;-76
2023/06/24 01:43:56;;;;;;;7.30;5.20;;;;;;;26.39;53.91;99947.72;4938717;29;20079;-75
2023/06/24 01:46:23;;;;;;;7.63;5.40;;;;;;;26.39;54.28;99945.03;4938292;29;20024;-76
2023/06/24 01:48:51;;;;;;;8.73;5.93;;;;;;;26.37;54.29;99947.81;4938770;29;20023;-75
2023/06/24 01:51:22;;;;;;;7.65;5.05;;;;;;;26.36;53.97;99947.94;4938590;29;20027;-76
2023/06/24 01:54:11;;;;;;;7.93;5.57;;;;;;;26.38;54.37;99945.97;4937163;29;20032;-75
2023/06/24 01:56:38;;;;;;;7.72;5.07;;;;;;;26.37;54.39;99944.28;4938053;29;20036;-75
2023/06/24 01:59:05;;;;;;;7.15;5.40;;;;;;;26.37;54.34;99944.28;4936944;29;20396;-76
2023/06/24 02:01:33;;;;;;;6.65;5.32;;;;;;;26.36;54.37;99942.59;4937140;29;20206;-76
2023/06/24 02:04:01;;;;;;;6.55;5.05;;;;;;;26.37;54.17;99928.22;4938272;29;20055;-77
2023/06/24 02:06:29;;;;;;;7.30;5.38;;;;;;;26.37;53.42;99939.78;4938007;29;20031;-75
2023/06/24 02:08:58;;;;;;;6.65;4.80;;;;;;;26.37;53.68;99944.28;4938006;29;20030;-74
2023/06/24 02:11:26;;;;;;;7.45;5.28;;;;;;;26.37;53.76;99945.16;4937591;29;20400;-77
2023/06/24 02:13:53;;;;;;;6.80;5.53;;;;;;;26.36;53.13;99942.59;4938439;29;20063;-76
2023/06/24 02:16:21;;;;;;;6.95;5.10;;;;;;;26.37;54.05;99933.59;4937902;29;20047;-75
2023/06/24 02:18:47;;;;;;;6.55;4.88;;;;;;;26.35;53.90;99931.00;4938006;29;20075;-75
2023/06/24 02:21:16;;;;;;;7.50;5.53;;;;;;;26.35;53.65;99924.84;4938049;29;20063;-77
2023/06/24 02:23:42;;;;;;;7.00;4.82;;;;;;;26.35;53.94;99925.66;4937940;29;20045;-75
2023/06/24 02:26:09;;;;;;;7.40;4.80;;;;;;;26.34;54.20;99923.13;4937501;29;20035;-75
2023/06/24 02:28:37;;;;;;;7.00;5.00;;;;;;;26.33;53.77;99926.78;4938008;29;20047;-76
2023/06/24 02:31:04;;;;;;;6.55;5.20;;;;;;;26.33;54.01;99921.44;4937712;29;20134;-76
2023/06/24 02:33:29;;;;;;;7.20;5.07;;;;;;;26.32;53.61;99920.56;4937388;29;20028;-75
2023/06/24 02:35:55;;;;;;;7.13;5.15;;;;;;;26.34;53.71;99915.09;4937499;29;20047;-75
2023/06/24 02:38:20;;;;;;;7.35;5.20;;;;;;;26.32;53.66;99914.34;4937423;29;20039;-75
2023/06/24 02:40:45;;;;;;;6.30;4.78;;;;;;;26.29;53.93;99911.94;4937303;29;20027;-74
2023/06/24 02:43:11;;;;;;;7.03;5.57;;;;;;;26.26;53.92;99913.84;4937507;29;20028;-74
2023/06/24 02:45:38;;;;;;;8.10;5.10;;;;;;;26.27;53.95;99920.94;4937506;29;20034;-76
2023/06/24 02:48:05;;;;;;;7.20;4.78;;;;;;;26.27;53.88;99918.25;4940958;29;20023;-75
2023/06/24 02:50:33;;;;;;;6.13;4.93;;;;;;;26.26;53.64;99916.53;4936534;29;20094;-75
2023/06/24 02:52:59;;;;;;;7.57;5.40;;;;;;;26.23;53.59;99911.44;4937372;29;20031;-76
2023/06/24 02:55:26;;;;;;;6.47;4.93;;;;;;;26.22;53.90;99911.50;4936983;29;20433;-74
2023/06/24 02:57:53;;;;;;;6.72;5.00;;;;;;;26.25;53.93;99917.50;4937212;29;20024;-73
2023/06/24 03:00:18;;;;;;;6.75;5.18;;;;;;;26.24;53.59;99912.28;4937017;29;20024;-75
2023/06/24 03:02:46;;;;;;;6.38;4.90;;;;;;;26.22;53.66;99909.69;4937228;29;20031;-76
2023/06/24 03:05:11;;;;;;;6.85;5.18;;;;;;;26.22;54.02;99915.03;4937143;29;20508;-75
2023/06/24 03:07:38;;;;;;;7.65;5.40;;;;;;;26.22;53.67;99909.69;4937175;29;20106;-75
2023/06/24 03:10:05;;;;;;;6.30;5.28;;;;;;;26.21;53.85;99908.00;4936386;29;20126;-75
2023/06/24 03:12:31;;;;;;;6.60;5.45;;;;;;;26.19;54.01;99909.91;4937119;29;20047;-76
2023/06/24 03:14:56;;;;;;;7.57;4.88;;;;;;;26.17;53.83;99909.19;4936991;29;20119;-75
2023/06/24 03:17:22;;;;;;;7.03;4.88;;;;;;;26.18;54.04;99907.34;4937402;29;20110;-74
2023/06/24 03:19:47;;;;;;;7.63;5.13;;;;;;;26.19;53.81;99904.56;4936947;29;20032;-74
2023/06/24 03:22:13;;;;;;;6.72;4.95;;;;;;;26.20;53.62;99905.44;4936973;29;20023;-73
2023/06/24 03:24:38;;;;;;;6.90;5.65;;;;;;;26.20;53.96;99905.44;4936509;29;20031;-74
2023/06/24 03:27:04;;;;;;;6.78;5.20;;;;;;;26.17;53.76;99906.50;4933506;29;20095;-74
2023/06/24 03:29:29;;;;;;;7.65;5.18;;;;;;;26.18;53.47;99902.88;4917742;29;20149;-75
2023/06/24 03:31:55;;;;;;;6.65;5.47;;;;;;;26.16;53.62;99896.78;4917735;29;20497;-74
2023/06/24 03:34:20;;;;;;;5.97;5.10;;;;;;;26.15;53.55;99903.13;4932904;29;20392;-74
2023/06/24 03:36:46;;;;;;;7.28;6.03;;;;;;;26.12;54.04;99906.88;4936461;29;20491;-74
2023/06/24 03:39:11;;;;;;;7.07;5.38;;;;;;;26.14;53.81;99902.25;4936873;29;20027;-75
2023/06/24 03:41:37;;;;;;;7.07;5.25;;;;;;;26.11;53.72;99899.78;4936741;29;20027;-75
2023/06/24 03:44:02;;;;;;;7.53;4.95;;;;;;;26.11;54.03;99907.81;4936588;29;20024;-73
2023/06/24 03:46:32;;;;;;;7.47;5.28;;;;;;;26.10;53.99;99905.28;4936490;29;20046;-74
2023/06/24 03:48:58;;;;;;;5.90;4.88;;;;;;;26.11;53.73;99901.63;4936536;29;20488;-73
2023/06/24 03:51:24;;;;;;;6.70;5.25;;;;;;;26.07;54.07;99906.38;4936341;29;20027;-73
2023/06/24 03:53:51;;;;;;;6.90;4.93;;;;;;;26.08;53.93;99907.19;4936164;29;20024;-74
2023/06/24 03:56:16;;;;;;;7.30;5.10;;;;;;;26.07;53.86;99906.38;4935843;29;20046;-74
2023/06/24 03:58:42;;;;;;;7.53;4.90;;;;;;;26.08;53.71;99904.53;4936546;29;20036;-73
2023/06/24 04:01:09;;;;;;;6.68;5.03;;;;;;;26.09;53.86;99903.56;4935620;29;20028;-74
2023/06/24 04:03:35;;;;;;;6.63;4.80;;;;;;;26.08;53.83;99913.41;4936144;29;20136;-74
2023/06/24 04:06:01;;;;;;;6.50;4.80;;;;;;;26.06;53.96;99911.81;4936034;29;20484;-76
2023/06/24 04:08:29;;;;;;;6.82;4.53;;;;;;;26.05;53.89;99902.94;4936138;29;20031;-73
2023/06/24 04:10:55;;;;;;;8.02;4.93;;;;;;;26.04;53.90;99911.94;4935899;29;20559;-74
2023/06/24 04:13:20;;;;;;;6.50;4.90;;;;;;;26.05;54.00;99915.47;4936138;29;20035;-75
2023/06/24 04:15:46;;;;;;;7.03;5.10;;;;;;;26.04;53.95;99911.09;4935817;29;20032;-74
2023/06/24 04:18:11;;;;;;;5.93;4.40;;;;;;;26.00;53.80;99900.63;4935617;29;20441;-74
2023/06/24 04:20:36;;;;;;;5.57;4.38;;;;;;;26.03;53.88;99904.88;4935534;29;20024;-76
2023/06/24 04:23:03;;;;;;;7.43;4.85;;;;;;;26.01;53.66;99896.97;4934481;29;20032;-74
2023/06/24 04:25:29;;;;;;;7.15;4.75;;;;;;;26.04;53.68;99900.41;4935877;29;20370;-74
2023/06/24 04:27:54;;;;;;;6.70;4.50;;;;;;;26.03;53.60;99898.66;4935745;29;20039;-75
2023/06/24 04:30:19;;;;;;;7.00;4.22;;;;;;;26.03;53.62;99896.88;4935359;29;20390;-75
2023/06/24 04:32:45;;;;;;;7.50;5.07;;;;;;;26.05;53.27;99894.09;4934567;28;20042;-74
2023/06/24 04:35:10;;;;;;;6.28;4.22;;;;;;;26.04;53.40;99897.72;4935165;29;20030;-74
2023/06/24 04:37:35;;;;;;;6.60;4.45;;;;;;;25.99;53.37;99893.56;4935470;29;20043;-76
2023/06/24 04:40:01;;;;;;;5.82;4.28;;;;;;;26.03;53.51;99896.00;4935435;29;20132;-74
2023/06/24 04:42:26;;;;;;;7.22;4.60;;;;;;;25.98;53.66;99897.22;4934297;29;20043;-76
2023/06/24 04:44:52;;;;;;;5.80;4.15;;;;;;;25.99;53.56;99903.41;4935365;29;20091;-74
2023/06/24 04:47:18;;;;;;;6.30;4.32;;;;;;;25.99;53.89;99903.41;4922395;29;20032;-75
2023/06/24 04:49:43;;;;;;;5.95;4.47;;;;;;;25.99;53.28;99901.59;4921898;29;20024;-73
2023/06/24 04:52:11;;;;;;;6.38;4.38;;;;;;;26.03;53.25;99901.34;4935333;29;20127;-75
2023/06/24 04:54:36;;;;;;;6.40;4.10;;;;;;;25.99;53.55;99908.75;4935604;29;20028;-75
2023/06/24 04:57:02;;;;;;;6.63;4.70;;;;;;;26.01;53.67;99913.00;4935228;29;20440;-73
2023/06/24 04:59:27;;;;;;;7.05;4.53;;;;;;;25.99;53.35;99909.63;4935074;29;20035;-76
2023/06/24 05:01:53;;;;;;;5.78;4.63;;;;;;;26.03;53.22;99906.69;4935194;29;20112;-75
2023/06/24 05:04:18;;;;;;;7.10;4.47;;;;;;;26.01;53.51;99913.00;4935031;29;20054;-74
2023/06/24 05:06:44;;;;;;;6.40;4.80;;;;;;;26.03;53.70;99909.38;4935326;29;20098;-74
2023/06/24 05:09:13;;;;;;;6.10;4.10;;;;;;;26.00;53.61;99910.44;4935178;29;20102;-75
2023/06/24 05:11:39;;;;;;;6.00;4.47;;;;;;;26.01;53.51;99918.38;4934340;29;20107;-74
2023/06/24 05:14:04;;;;;;;6.05;4.32;;;;;;;25.99;53.67;99904.28;4935126;29;20112;-74
2023/06/24 05:16:29;;;;;;;5.93;4.63;;;;;;;25.99;53.36;99917.63;4935110;29;20055;-75
2023/06/24 05:18:55;;;;;;;6.95;4.28;;;;;;;26.00;53.70;99914.00;4934645;29;20023;-74
2023/06/24 05:21:20;;;;;;;6.07;4.57;;;;;;;25.98;53.74;99918.59;4934954;29;20110;-73
2023/06/24 05:23:46;;;;;;;6.88;4.03;;;;;;;25.97;53.64;99916.91;4934941;29;20081;-76
2023/06/24 05:26:11;;;;;;;5.68;4.10;;;;;;;25.98;53.76;99920.41;4934885;29;20023;-74
2023/06/24 05:28:36;;;;;;;5.60;3.83;;;;;;;25.95;53.82;99912.66;4934904;29;20028;-75
2023/06/24 05:31:02;;;;;;;6.72;4.47;;;;;;;25.90;53.68;99910.28;4934967;29;20028;-73
2023/06/24 05:33:27;;;;;;;6.18;4.13;;;;;;;25.93;53.90;99914.56;4934486;29;20074;-76
2023/06/24 05:35:53;;;;;;;6.10;4.30;;;;;;;25.90;53.66;99910.28;4934912;29;20499;-74
2023/06/24 05:38:18;;;;;;;5.78;4.05;;;;;;;25.90;54.06;99904.13;4934832;29;20028;-76
2023/06/24 05:40:44;;;;;;;6.38;4.47;;;;;;;25.90;53.71;99910.28;4934831;29;20402;-74
2023/06/24 05:43:10;;;;;;;6.30;4.50;;;;;;;25.89;53.93;99913.94;4934674;29;20031;-74
2023/06/24 05:45:36;;;;;;;4.78;3.60;;;;;;;25.93;53.53;99915.44;4934886;29;20040;-74
2023/06/24 05:48:03;;;;;;;5.43;3.92;;;;;;;25.93;53.69;99910.06;4934202;29;20397;-74
2023/06/24 05:50:28;;;;;;;6.55;4.63;;;;;;;25.93;53.58;99909.22;4934848;29;20038;-74
2023/06/24 05:52:54;;;;;;;6.28;4.35;;;;;;;25.93;53.55;99914.56;4934577;29;20484;-75
2023/06/24 05:55:19;;;;;;;6.28;4.25;;;;;;;25.95;53.75;99913.47;4934733;29;20039;-75
2023/06/24 05:57:44;;;;;;;5.90;4.43;;;;;;;25.95;53.82;99908.13;4934683;29;20032;-74
2023/06/24 06:00:10;;;;;;;5.50;4.18;;;;;;;25.94;53.57;99908.25;4934428;29;20520;-74
2023/06/24 06:02:36;;;;;;;5.72;3.92;;;;;;;25.89;53.63;99902.41;4934366;29;20486;-73
2023/06/24 06:05:01;;;;;;;7.32;4.60;;;;;;;25.90;53.99;99898.75;4934763;29;20095;-75
2023/06/24 06:07:26;;;;;;;6.22;4.00;;;;;;;25.90;54.04;99904.13;4934401;29;20448;-74
2023/06/24 06:09:52;;;;;;;5.68;4.25;;;;;;;25.92;53.60;99903.03;4942440;29;20030;-74
2023/06/24 06:12:17;;;;;;;6.82;4.50;;;;;;;25.92;53.91;99892.34;4934509;29;20067;-74
2023/06/24 06:14:43;;;;;;;7.18;5.05;;;;;;;25.91;53.94;99897.78;4934712;29;20032;-73
2023/06/24 06:17:08;;;;;;;6.95;4.88;;;;;;;25.92;53.30;99892.34;4934120;29;20032;-75
2023/06/24 06:19:34;;;;;;;6.95;4.68;;;;;;;25.93;53.40;99891.38;4934260;29;20034;-75
2023/06/24 06:21:59;;;;;;;6.03;4.43;;;;;;;25.92;53.77;99887.00;4949083;29;20122;-74
2023/06/24 06:24:24;;;;;;;6.72;4.32;;;;;;;25.93;53.83;99887.81;4935484;29;20078;-75
2023/06/24 06:26:50;;;;;;;6.10;4.18;;;;;;;25.93;53.67;99890.50;4938114;29;20485;-76
2023/06/24 06:29:15;;;;;;;7.55;4.32;;;;;;;25.93;53.47;99888.69;4937633;29;20601;-73
2023/06/24 06:31:41;;;;;;;6.30;4.60;;;;;;;25.93;53.72;99894.03;4937660;29;20126;-74
2023/06/24 06:34:06;;;;;;;6.47;4.03;;;;;;;25.94;53.90;99887.72;4936485;29;20525;-74
2023/06/24 06:36:31;;;;;;;5.45;3.92;;;;;;;25.97;53.87;99886.63;4937519;29;20032;-74
2023/06/24 06:38:57;;;;;;;5.97;3.88;;;;;;;25.98;53.67;99883.00;4937758;29;20024;-74
2023/06/24 06:41:24;;;;;;;5.53;4.38;;;;;;;25.98;53.94;99889.19;4937706;29;20108;-75
2023/06/24 06:43:53;;;;;;;6.25;4.00;;;;;;;25.97;53.64;99890.19;4937638;29;20038;-75
2023/06/24 06:46:19;;;;;;;6.00;4.57;;;;;;;25.97;53.44;99887.50;4936586;29;20031;-74
2023/06/24 06:48:45;;;;;;;6.13;3.97;;;;;;;25.97;53.73;99884.81;4937673;29;20031;-74
2023/06/24 06:51:10;;;;;;;6.00;3.65;;;;;;;25.99;53.28;99888.22;4937561;29;20082;-74
2023/06/24 06:53:36;;;;;;;5.93;4.13;;;;;;;25.97;53.70;99879.47;4937369;29;20492;-76
2023/06/24 06:56:01;;;;;;;7.40;4.53;;;;;;;26.01;53.33;99880.94;4937350;29;20032;-74
2023/06/24 06:58:27;;;;;;;6.13;4.38;;;;;;;26.03;53.45;99883.50;4937356;29;20032;-74
2023/06/24 07:00:52;;;;;;;5.57;4.13;;;;;;;26.02;53.70;99881.78;4936891;29;20417;-74
2023/06/24 07:03:18;;;;;;;7.28;4.20;;;;;;;26.04;53.39;99881.69;4937238;29;20032;-75
2023/06/24 07:05:43;;;;;;;6.57;4.68;;;;;;;26.05;53.76;99886.06;4937335;29;20377;-75
2023/06/24 07:08:08;;;;;;;7.55;4.53;;;;;;;26.06;53.51;99882.41;4935902;29;20047;-73
2023/06/24 07:10:34;;;;;;;5.47;3.88;;;;;;;26.08;53.48;99880.47;4939619;29;20404;-74
2023/06/24 07:13:00;;;;;;;6.18;4.40;;;;;;;26.06;53.30;99879.75;4941806;29;20086;-74
2023/06/24 07:15:26;;;;;;;6.07;4.55;;;;;;;26.05;53.43;99886.06;4952061;29;20038;-75
2023/06/24 07:17:52;;;;;;;8.50;4.80;;;;;;;26.09;53.35;99887.50;4956260;29;20027;-74
2023/06/24 07:20:17;;;;;;;7.47;4.63;;;;;;;26.08;53.43;99875.97;4945503;29;20090;-75
2023/06/24 07:22:43;;;;;;;5.68;4.43;;;;;;;26.11;53.51;99874.88;4935653;29;20031;-74
2023/06/24 07:25:09;;;;;;;6.35;4.63;;;;;;;26.14;53.39;99874.63;4936727;29;20089;-75
2023/06/24 07:27:34;;;;;;;6.22;4.65;;;;;;;26.13;53.67;99879.16;4936584;29;20400;-74
2023/06/24 07:29:59;;;;;;;5.85;4.35;;;;;;;26.16;53.74;99878.06;4936015;29;20131;-73
2023/06/24 07:32:25;;;;;;;6.57;4.78;;;;;;;26.15;53.78;99876.38;4937023;29;20039;-74
2023/06/24 07:34:50;;;;;;;7.65;5.20;;;;;;;26.17;53.89;99868.22;4934494;29;20028;-74
2023/06/24 07:37:16;;;;;;;6.47;4.30;;;;;;;26.20;53.62;99873.34;4934605;29;20028;-74
2023/06/24 07:39:41;;;;;;;6.35;4.75;;;;;;;26.23;53.28;99876.66;4937030;29;20027;-76
2023/06/24 07:42:07;;;;;;;7.70;4.90;;;;;;;26.23;53.89;99868.63;4937814;29;20039;-76
2023/06/24 07:44:32;;;;;;;7.30;5.00;;;;;;;26.24;53.76;99859.63;4935806;29;20500;-75
2023/06/24 07:46:58;;;;;;;6.80;4.93;;;;;;;26.23;53.42;99857.94;4920109;29;20027;-74
2023/06/24 07:49:23;;;;;;;7.55;4.50;;;;;;;26.24;53.33;99854.28;4935427;29;20114;-73
2023/06/24 07:51:49;;;;;;;8.13;4.70;;;;;;;26.24;53.76;99851.59;4935306;29;20059;-74
2023/06/24 07:54:15;;;;;;;6.03;5.00;;;;;;;26.27;53.99;99851.38;4935828;29;20031;-74
2023/06/24 07:56:40;;;;;;;6.45;4.30;;;;;;;26.29;53.62;99845.06;4936167;29;20030;-74
2023/06/24 07:59:06;;;;;;;6.30;4.75;;;;;;;26.28;53.70;99838.84;4935612;29;20058;-74
2023/06/24 08:01:31;;;;;;;5.82;4.25;;;;;;;26.30;53.71;99842.28;4936135;29;20515;-77
2023/06/24 08:03:57;;;;;;;6.32;4.60;;;;;;;26.31;53.61;99848.44;4935244;29;20035;-76
2023/06/24 08:06:22;;;;;;;8.23;4.70;;;;;;;26.31;53.66;99843.09;4935308;29;20039;-76
2023/06/24 08:08:47;;;;;;;7.10;4.80;;;;;;;26.32;53.47;99834.09;4936026;29;20027;-76
2023/06/24 08:11:13;;;;;;;5.90;4.05;;;;;;;26.34;53.85;99837.53;4935350;29;20032;-76
2023/06/24 08:13:39;;;;;;;6.10;4.50;;;;;;;26.33;53.54;99841.19;4935363;29;20087;-77
2023/06/24 08:16:05;;;;;;;7.18;4.75;;;;;;;26.34;53.70;99848.22;4935777;29;20035;-74
2023/06/24 08:18:31;;;;;;;6.75;4.45;;;;;;;26.36;53.93;99838.25;4935909;29;20023;-73
2023/06/24 08:20:56;;;;;;;6.72;4.43;;;;;;;26.35;53.75;99840.06;4931710;29;20039;-75
2023/06/24 08:23:22;;;;;;;8.20;4.80;;;;;;;26.35;53.24;99841.91;4932792;29;20094;-75
2023/06/24 08:25:47;;;;;;;7.50;4.68;;;;;;;26.37;53.35;99834.59;4936819;29;20039;-75
2023/06/24 08:28:13;;;;;;;6.13;4.53;;;;;;;26.39;53.31;99840.69;4935586;29;20036;-75
2023/06/24 08:30:38;;;;;;;7.93;5.05;;;;;;;26.39;53.78;99830.00;4932148;29;20062;-74
2023/06/24 08:33:03;;;;;;;7.38;4.72;;;;;;;26.41;53.79;99825.38;4935170;29;20031;-74
2023/06/24 08:35:29;;;;;;;7.47;4.68;;;;;;;26.42;53.60;99824.38;4937479;29;20040;-75
2023/06/24 08:37:54;;;;;;;7.15;4.65;;;;;;;26.43;53.95;99825.25;4939045;29;20059;-74
2023/06/24 08:40:20;;;;;;;7.22;5.03;;;;;;;26.44;53.69;99816.25;4936279;29;20027;-74
2023/06/24 08:42:45;;;;;;;9.18;4.53;;;;;;;26.44;53.75;99817.09;4936170;29;20034;-75
2023/06/24 08:45:10;;;;;;;8.15;4.55;;;;;;;26.45;53.46;99813.47;4936165;29;20028;-74
2023/06/24 08:47:36;;;;;;;8.48;4.70;;;;;;;26.48;53.54;99807.00;4928890;29;20118;-78
2023/06/24 08:50:05;;;;;;;9.13;5.18;;;;;;;26.48;53.98;99813.19;4936093;29;20031;-75
2023/06/24 08:52:36;;;;;;;8.30;4.72;;;;;;;26.49;53.50;99812.22;4934943;29;20039;-76
2023/06/24 08:55:04;;;;;;;8.82;4.28;;;;;;;26.49;53.28;99804.19;4941969;29;20086;-74
2023/06/24 08:57:29;;;;;;;7.43;5.28;;;;;;;26.49;53.28;99809.53;4930053;29;20043;-74
2023/06/24 08:59:55;;;;;;;8.38;4.95;;;;;;;26.53;53.83;99805.66;4932369;29;20063;-75
2023/06/24 09:02:20;;;;;;;8.15;4.90;;;;;;;26.53;53.63;99800.31;4935731;29;20032;-75
2023/06/24 09:04:46;;;;;;;7.38;4.15;;;;;;;26.56;53.44;99795.69;4935720;29;20028;-75
2023/06/24 09:07:11;;;;;;;7.28;4.70;;;;;;;26.58;53.91;99788.41;4933447;29;20047;-74
2023/06/24 09:09:44;;;;;;;7.40;4.75;;;;;;;26.59;53.46;99787.41;4935746;29;20034;-74
2023/06/24 09:12:14;;;;;;;9.23;4.95;;;;;;;26.58;53.60;99783.06;4931422;29;20031;-74
2023/06/24 09:14:40;;;;;;;7.97;4.85;;;;;;;26.59;53.81;99782.94;4931500;29;20059;-75
2023/06/24 09:17:06;;;;;;;7.28;4.20;;;;;;;26.61;53.52;99791.69;4935444;29;20067;-76
2023/06/24 09:19:36;;;;;;;8.65;4.70;;;;;;;26.62;53.35;99782.66;4935850;29;20035;-75
2023/06/24 09:22:16;;;;;;;10.02;5.13;;;;;;;26.63;53.20;99780.84;4934776;29;20375;-74
2023/06/24 09:24:42;;;;;;;8.73;4.68;;;;;;;26.64;53.45;99777.19;4936643;29;20659;-74
2023/06/24 09:27:07;;;;;;;9.70;4.97;;;;;;;26.65;53.46;99773.53;4935665;29;20039;-75
2023/06/24 09:29:35;;;;;;;10.13;4.78;;;;;;;26.66;53.61;99778.78;4943309;29;20087;-75
2023/06/24 09:32:04;;;;;;;6.70;4.63;;;;;;;26.66;53.02;99778.78;4936150;29;20043;-75
2023/06/24 09:34:30;;;;;;;11.63;5.30;;;;;;;26.68;53.19;99770.59;4932226;29;20040;-74
2023/06/24 09:36:57;;;;;;;7.80;4.35;;;;;;;26.70;53.25;99770.50;4934815;29;20059;-75
2023/06/24 09:39:28;;;;;;;11.38;4.82;;;;;;;26.71;53.16;99770.38;4929363;29;20135;-75
2023/06/24 09:41:54;;;;;;;10.27;4.50;;;;;;;26.71;53.48;99765.03;4933815;29;20488;-75
2023/06/24 09:44:20;;;;;;;9.88;5.18;;;;;;;26.73;53.35;99768.41;4936734;29;20509;-75
2023/06/24 09:46:46;;;;;;;12.75;5.70;;;;;;;26.73;53.41;99763.06;4935409;29;20024;-76
2023/06/24 09:49:11;;;;;;;10.23;5.13;;;;;;;26.73;52.83;99757.69;4933473;29;20385;-75
2023/06/24 09:51:39;;;;;;;6.68;4.45;;;;;;;26.73;52.77;99752.34;4932908;29;20024;-76
2023/06/24 09:54:09;;;;;;;12.55;5.38;;;;;;;26.75;52.72;99755.78;4935061;29;20127;-75
2023/06/24 09:56:41;;;;;;;10.63;4.32;;;;;;;26.75;53.31;99755.78;4935169;29;20118;-75
2023/06/24 09:59:07;;;;;;;9.45;5.07;;;;;;;26.76;52.82;99751.25;4933402;29;20457;-74
2023/06/24 10:01:38;;;;;;;9.77;4.40;;;;;;;26.77;52.83;99740.44;4939151;29;20055;-77
2023/06/24 10:04:05;;;;;;;6.57;4.20;;;;;;;26.78;52.73;99739.44;4938918;29;20101;-76
2023/06/24 10:06:32;;;;;;;7.95;4.85;;;;;;;26.79;52.73;99735.78;4937847;29;20066;-76
2023/06/24 10:08:58;;;;;;;7.18;4.60;;;;;;;26.79;52.59;99735.78;4939760;29;20078;-76
2023/06/24 10:11:24;;;;;;;7.82;4.30;;;;;;;26.79;52.41;99722.41;4938227;29;20031;-75
2023/06/24 10:13:50;;;;;;;8.10;4.88;;;;;;;26.80;52.75;99731.31;4938228;29;20090;-75
2023/06/24 10:16:15;;;;;;;6.70;4.45;;;;;;;26.81;52.27;99733.00;4940367;29;20099;-76
2023/06/24 10:18:44;;;;;;;7.45;4.93;;;;;;;26.81;52.42;99731.19;4945284;29;20035;-75
2023/06/24 10:21:10;;;;;;;7.03;4.53;;;;;;;26.80;51.96;99724.13;4939216;29;20031;-75
2023/06/24 10:23:47;;;;;;;7.05;4.70;;;;;;;26.83;52.21;99724.84;4939250;29;20038;-75
2023/06/24 10:26:36;;;;;;;5.82;4.32;;;;;;;26.83;52.20;99714.13;4939037;29;20032;-75
2023/06/24 10:29:07;;;;;;;6.65;4.35;;;;;;;26.84;52.27;99715.84;4939534;29;20048;-75
2023/06/24 10:31:53;;;;;;;6.88;4.40;;;;;;;26.85;51.61;99712.19;4936790;29;20042;-74
2023/06/24 10:34:18;;;;;;;6.13;3.88;;;;;;;26.86;52.08;99708.50;4936803;29;20078;-73
2023/06/24 10:36:56;;;;;;;5.45;3.97;;;;;;;26.87;51.59;99699.53;4940547;29;20070;-75
2023/06/24 10:39:50;;;;;;;6.30;4.25;;;;;;;26.87;51.39;99710.25;4936536;29;20032;-74
2023/06/24 10:42:44;;;;;;;7.88;4.43;;;;;;;26.86;51.12;99704.03;4937780;29;20036;-75
2023/06/24 10:45:09;;;;;;;6.47;4.35;;;;;;;26.87;52.27;99699.53;4939704;29;20404;-74
2023/06/24 10:47:42;;;;;;;6.93;3.92;;;;;;;26.88;51.79;99707.41;4941502;29;20023;-75
2023/06/24 10:50:10;;;;;;;5.38;4.10;;;;;;;26.88;51.98;99696.69;4929089;29;20032;-74
2023/06/24 10:52:46;;;;;;;6.07;3.97;;;;;;;26.89;51.12;99697.56;4937370;29;20043;-74
2023/06/24 10:55:17;;;;;;;5.43;3.33;;;;;;;26.89;51.02;99692.22;4941547;29;20032;-74
2023/06/24 10:57:43;;;;;;;7.15;4.10;;;;;;;26.90;51.48;99693.91;4938713;29;20047;-76
2023/06/24 11:00:09;;;;;;;6.97;4.00;;;;;;;26.91;51.54;99687.56;4939433;29;20024;-75
2023/06/24 11:02:36;;;;;;;7.30;3.85;;;;;;;26.91;51.51;99687.56;4941761;29;20083;-76
2023/06/24 11:05:02;;;;;;;7.57;4.03;;;;;;;26.91;51.18;99685.78;4943781;29;20062;-74
2023/06/24 11:07:30;;;;;;;6.10;4.07;;;;;;;26.93;51.70;99685.66;4935234;29;20552;-76
2023/06/24 11:09:58;;;;;;;4.90;3.50;;;;;;;26.92;51.72;99678.63;4937349;29;20068;-75
2023/06/24 11:12:32;;;;;;;6.00;4.03;;;;;;;26.93;51.18;99683.81;4941132;29;20028;-76
2023/06/24 11:14:58;;;;;;;5.45;4.00;;;;;;;26.93;51.23;99683.81;4942145;29;20035;-75
2023/06/24 11:17:25;;;;;;;5.78;3.50;;;;;;;26.94;51.27;99682.00;4936258;29;20051;-76
2023/06/24 11:19:56;;;;;;;5.55;3.53;;;;;;;26.94;51.46;99682.00;4937492;29;20063;-74
2023/06/24 11:22:22;;;;;;;5.95;3.70;;;;;;;26.95;51.16;99678.34;4945791;29;20418;-74
2023/06/24 11:24:47;;;;;;;5.90;3.90;;;;;;;26.96;51.27;99676.53;4940530;29;20079;-75
2023/06/24 11:27:13;;;;;;;5.50;3.63;;;;;;;26.97;51.20;99678.22;4952830;29;20451;-74
2023/06/24 11:29:38;;;;;;;4.88;3.65;;;;;;;26.97;51.35;99668.34;4949572;29;20088;-74
2023/06/24 11:32:07;;;;;;;6.68;3.50;;;;;;;26.98;51.29;99675.44;4937971;29;20396;-77